Time;durP1;ratioP1;P1;durP2;ratioP2;P2;SDS_P1;SDS_P2;PMS_P1;PMS_P2;Temp;Humidity;BMP_temperature;BMP_pressure;BME280_temperature;BME280_humidity;BME280_pressure;Samples;Min_cycle;Max_cycle;Signal;HPM_P1;HPM_P2
2021/04/30 00:00:08;;;;;;;5.57;4.33;;;;;;;;;;5067698;28;20184;-63
2021/04/30 00:02:35;;;;;;;5.30;4.50;;;;;;;;;;5063636;28;20165;-63
2021/04/30 00:05:01;;;;;;;6.78;4.95;;;;;;;;;;5052696;28;20757;-62
2021/04/30 00:07:27;;;;;;;6.47;4.80;;;;;;;;;;5056595;28;20525;-64
2021/04/30 00:09:53;;;;;;;6.60;4.07;;;;;;;;;;5038394;28;20177;-63
2021/04/30 00:12:19;;;;;;;6.27;4.17;;;;;;;;;;5069639;28;20230;-63
2021/04/30 00:14:45;;;;;;;6.03;4.50;;;;;;;;;;5057008;28;20208;-63
2021/04/30 00:17:11;;;;;;;7.43;4.83;;;;;;;;;;5065826;28;20172;-66
2021/04/30 00:19:37;;;;;;;6.43;4.40;;;;;;;;;;5057598;28;20177;-65
2021/04/30 00:22:03;;;;;;;6.20;4.30;;;;;;;;;;5060358;28;20191;-63
2021/04/30 00:24:29;;;;;;;4.77;4.27;;;;;;;;;;5055859;28;20197;-64
2021/04/30 00:26:55;;;;;;;5.90;3.97;;;;;;;;;;5037540;28;20180;-62
2021/04/30 00:29:21;;;;;;;6.17;3.50;;;;;;;;;;5051783;28;20536;-63
2021/04/30 00:31:48;;;;;;;6.33;4.30;;;;;;;;;;5059648;28;20639;-65
2021/04/30 00:34:14;;;;;;;5.47;4.03;;;;;;;;;;5069757;28;20294;-63
2021/04/30 00:36:41;;;;;;;4.80;4.27;;;;;;;;;;5074548;28;20615;-63
2021/04/30 00:39:07;;;;;;;5.57;4.67;;;;;;;;;;5071594;28;20275;-63
2021/04/30 00:41:34;;;;;;;6.57;4.13;;;;;;;;;;5077530;28;20230;-63
2021/04/30 00:44:07;;;;;;;6.80;4.50;;;;;;;;;;5060372;28;20417;-63
2021/04/30 00:46:33;;;;;;;7.80;4.57;;;;;;;;;;5062626;28;20575;-63
2021/04/30 00:48:59;;;;;;;8.63;3.93;;;;;;;;;;5086649;28;20203;-63
2021/04/30 00:51:25;;;;;;;7.23;4.53;;;;;;;;;;5081227;28;20738;-64
2021/04/30 00:53:52;;;;;;;5.23;3.90;;;;;;;;;;5076889;28;20171;-63
2021/04/30 00:56:18;;;;;;;6.63;3.93;;;;;;;;;;5080999;28;20674;-63
2021/04/30 00:58:44;;;;;;;4.53;4.13;;;;;;;;;;5090115;28;20180;-63
2021/04/30 01:01:10;;;;;;;5.73;3.97;;;;;;;;;;5077160;28;20651;-63
2021/04/30 01:03:36;;;;;;;6.43;3.87;;;;;;;;;;5082871;28;20627;-63
2021/04/30 01:06:02;;;;;;;7.87;4.37;;;;;;;;;;5088704;28;20631;-64
2021/04/30 01:08:28;;;;;;;8.33;4.87;;;;;;;;;;5075054;28;20196;-63
2021/04/30 01:10:55;;;;;;;6.27;4.97;;;;;;;;;;5083851;28;20182;-62
2021/04/30 01:13:21;;;;;;;4.80;4.07;;;;;;;;;;5064658;28;20179;-62
2021/04/30 01:15:47;;;;;;;4.90;4.10;;;;;;;;;;5091070;28;20673;-63
2021/04/30 01:18:12;;;;;;;5.80;4.00;;;;;;;;;;5089517;28;20207;-64
2021/04/30 01:20:39;;;;;;;7.80;5.03;;;;;;;;;;5083859;28;20215;-63
2021/04/30 01:23:04;;;;;;;4.73;4.10;;;;;;;;;;5092455;28;20271;-62
2021/04/30 01:25:34;;;;;;;6.87;4.60;;;;;;;;;;5083267;28;20255;-63
2021/04/30 01:28:02;;;;;;;6.10;4.50;;;;;;;;;;5075788;28;20226;-63
2021/04/30 01:30:29;;;;;;;10.40;4.77;;;;;;;;;;5092943;28;20271;-64
2021/04/30 01:32:55;;;;;;;6.67;4.90;;;;;;;;;;5083664;28;20191;-64
2021/04/30 01:35:23;;;;;;;5.40;4.63;;;;;;;;;;5093255;28;20731;-64
2021/04/30 01:37:50;;;;;;;6.53;4.83;;;;;;;;;;5077936;28;20172;-62
2021/04/30 01:40:20;;;;;;;7.50;4.70;;;;;;;;;;5091947;28;20183;-63
2021/04/30 01:42:55;;;;;;;5.67;4.53;;;;;;;;;;5063369;28;20615;-63
2021/04/30 01:45:21;;;;;;;7.13;4.93;;;;;;;;;;5089902;28;20297;-64
2021/04/30 01:47:47;;;;;;;5.77;4.70;;;;;;;;;;5061699;28;20191;-63
2021/04/30 01:50:14;;;;;;;6.43;5.00;;;;;;;;;;5090928;28;20650;-63
2021/04/30 01:52:40;;;;;;;7.10;5.37;;;;;;;;;;5083239;28;20180;-62
2021/04/30 01:55:06;;;;;;;4.80;4.30;;;;;;;;;;5067754;28;20227;-63
2021/04/30 01:57:34;;;;;;;8.40;4.73;;;;;;;;;;5084525;28;20237;-63
2021/04/30 02:00:00;;;;;;;5.87;5.07;;;;;;;;;;5071791;28;20207;-62
2021/04/30 02:02:26;;;;;;;6.83;4.70;;;;;;;;;;5091883;28;20683;-63
2021/04/30 02:04:52;;;;;;;6.07;4.90;;;;;;;;;;5088884;28;20270;-63
2021/04/30 02:07:18;;;;;;;8.20;4.70;;;;;;;;;;5060391;28;20515;-64
2021/04/30 02:09:44;;;;;;;7.73;4.67;;;;;;;;;;5084707;28;20244;-63
2021/04/30 02:12:15;;;;;;;7.13;5.20;;;;;;;;;;5081023;28;20226;-63
2021/04/30 02:14:41;;;;;;;5.73;4.33;;;;;;;;;;5089086;28;20266;-63
2021/04/30 02:17:07;;;;;;;8.50;5.73;;;;;;;;;;5071366;28;20175;-63
2021/04/30 02:19:33;;;;;;;9.20;4.87;;;;;;;;;;5071685;28;20179;-64
2021/04/30 02:21:59;;;;;;;7.33;4.47;;;;;;;;;;5090702;28;20191;-63
2021/04/30 02:24:26;;;;;;;7.90;4.57;;;;;;;;;;5090555;28;20172;-62
2021/04/30 02:26:52;;;;;;;7.03;4.30;;;;;;;;;;5073491;28;20180;-63
2021/04/30 02:29:18;;;;;;;5.93;4.87;;;;;;;;;;5092131;28;20620;-62
2021/04/30 02:31:44;;;;;;;6.73;4.70;;;;;;;;;;5076836;28;20184;-63
2021/04/30 02:34:10;;;;;;;8.77;4.83;;;;;;;;;;5087291;28;20223;-63
2021/04/30 02:36:36;;;;;;;9.50;4.53;;;;;;;;;;5083782;28;20172;-63
2021/04/30 02:39:02;;;;;;;5.03;4.37;;;;;;;;;;5085413;28;20179;-62
2021/04/30 02:41:28;;;;;;;7.30;4.53;;;;;;;;;;5071217;28;20948;-63
2021/04/30 02:43:54;;;;;;;8.40;4.73;;;;;;;;;;5082503;28;20278;-63
2021/04/30 02:46:20;;;;;;;9.27;5.23;;;;;;;;;;5068868;28;20226;-62
2021/04/30 02:48:48;;;;;;;5.50;4.93;;;;;;;;;;5078129;28;20187;-62
2021/04/30 02:51:14;;;;;;;5.13;4.63;;;;;;;;;;5089982;28;20182;-63
2021/04/30 02:53:40;;;;;;;6.47;4.80;;;;;;;;;;5081315;28;20179;-62
2021/04/30 02:56:06;;;;;;;8.20;4.60;;;;;;;;;;5085976;28;20196;-62
2021/04/30 02:58:33;;;;;;;8.77;4.70;;;;;;;;;;5083584;28;20176;-63
2021/04/30 03:00:59;;;;;;;5.57;4.77;;;;;;;;;;5089550;28;20176;-65
2021/04/30 03:03:25;;;;;;;6.67;4.40;;;;;;;;;;5077152;28;20261;-62
2021/04/30 03:05:51;;;;;;;7.70;4.90;;;;;;;;;;5091762;28;20490;-63
2021/04/30 03:08:18;;;;;;;5.60;4.60;;;;;;;;;;5090048;28;20183;-63
2021/04/30 03:10:44;;;;;;;7.27;4.57;;;;;;;;;;5090163;28;20527;-65
2021/04/30 03:13:10;;;;;;;5.43;4.73;;;;;;;;;;5092146;28;20555;-63
2021/04/30 03:15:36;;;;;;;8.07;5.30;;;;;;;;;;5080558;28;20931;-63
2021/04/30 03:18:02;;;;;;;5.67;4.73;;;;;;;;;;5073579;28;20255;-62
2021/04/30 03:20:28;;;;;;;7.10;5.07;;;;;;;;;;5091977;28;20172;-62
2021/04/30 03:22:54;;;;;;;5.30;4.77;;;;;;;;;;5091598;28;20179;-64
2021/04/30 03:25:20;;;;;;;4.97;4.47;;;;;;;;;;5084108;28;20192;-63
2021/04/30 03:27:46;;;;;;;6.47;4.93;;;;;;;;;;5085511;28;20184;-62
2021/04/30 03:30:13;;;;;;;7.57;5.33;;;;;;;;;;5086987;28;20238;-64
2021/04/30 03:32:39;;;;;;;7.83;5.10;;;;;;;;;;5074365;28;20583;-62
2021/04/30 03:35:06;;;;;;;7.40;4.93;;;;;;;;;;5070384;28;20224;-62
2021/04/30 03:37:33;;;;;;;6.07;5.23;;;;;;;;;;5052927;28;20647;-62
2021/04/30 03:39:59;;;;;;;5.50;4.83;;;;;;;;;;5051432;28;20235;-62
2021/04/30 03:42:25;;;;;;;7.17;4.70;;;;;;;;;;5053661;28;20184;-62
2021/04/30 03:44:51;;;;;;;7.17;5.33;;;;;;;;;;5070734;28;20250;-62
2021/04/30 03:47:17;;;;;;;7.67;5.20;;;;;;;;;;5070524;28;20299;-63
2021/04/30 03:49:43;;;;;;;7.03;5.20;;;;;;;;;;5059596;28;20216;-64
2021/04/30 03:52:09;;;;;;;5.57;4.97;;;;;;;;;;5070641;28;20888;-62
2021/04/30 03:54:35;;;;;;;8.60;5.37;;;;;;;;;;5069811;28;20204;-62
2021/04/30 03:57:01;;;;;;;6.27;5.40;;;;;;;;;;5067049;28;20206;-62
2021/04/30 03:59:27;;;;;;;8.10;5.13;;;;;;;;;;5048167;28;20180;-62
2021/04/30 04:01:53;;;;;;;9.03;5.97;;;;;;;;;;5051408;28;20597;-62
2021/04/30 04:04:19;;;;;;;9.37;6.27;;;;;;;;;;5070503;28;20627;-63
2021/04/30 04:06:46;;;;;;;5.10;4.60;;;;;;;;;;5071225;28;20180;-62
2021/04/30 04:09:12;;;;;;;5.60;5.07;;;;;;;;;;5052715;28;20209;-63
2021/04/30 04:11:38;;;;;;;5.40;4.90;;;;;;;;;;5069906;28;20577;-62
2021/04/30 04:14:04;;;;;;;7.43;5.80;;;;;;;;;;5070937;28;20234;-63
2021/04/30 04:16:30;;;;;;;8.40;5.77;;;;;;;;;;5052438;28;20254;-63
2021/04/30 04:18:56;;;;;;;6.73;5.83;;;;;;;;;;5067822;28;20679;-63
2021/04/30 04:21:22;;;;;;;10.40;5.90;;;;;;;;;;5057774;28;20749;-63
2021/04/30 04:23:48;;;;;;;7.43;5.80;;;;;;;;;;5056950;28;20632;-63
2021/04/30 04:26:14;;;;;;;7.63;6.10;;;;;;;;;;5066240;28;20180;-63
2021/04/30 04:28:40;;;;;;;6.60;5.90;;;;;;;;;;5067050;28;20182;-63
2021/04/30 04:31:06;;;;;;;8.10;6.03;;;;;;;;;;5069744;28;20192;-62
2021/04/30 04:33:32;;;;;;;7.63;5.93;;;;;;;;;;5047101;28;20278;-64
2021/04/30 04:35:58;;;;;;;6.37;5.63;;;;;;;;;;5052736;28;20196;-63
2021/04/30 04:38:26;;;;;;;7.77;6.57;;;;;;;;;;5051808;28;20620;-63
2021/04/30 04:40:52;;;;;;;7.77;6.23;;;;;;;;;;5068707;28;20191;-62
2021/04/30 04:43:18;;;;;;;5.83;5.20;;;;;;;;;;5068155;28;20169;-63
2021/04/30 04:45:44;;;;;;;8.07;6.03;;;;;;;;;;5051050;28;20659;-62
2021/04/30 04:48:11;;;;;;;8.40;5.97;;;;;;;;;;5069295;28;20696;-63
2021/04/30 04:50:37;;;;;;;6.90;5.70;;;;;;;;;;5072335;28;20200;-62
2021/04/30 04:53:03;;;;;;;9.47;6.43;;;;;;;;;;5073676;28;20233;-62
2021/04/30 04:55:29;;;;;;;7.90;6.23;;;;;;;;;;5070829;28;20295;-63
2021/04/30 04:57:55;;;;;;;8.23;7.00;;;;;;;;;;5072430;28;20207;-63
2021/04/30 05:00:22;;;;;;;11.53;7.13;;;;;;;;;;5055431;28;20222;-63
2021/04/30 05:02:48;;;;;;;7.53;6.70;;;;;;;;;;5074537;28;20173;-62
2021/04/30 05:05:14;;;;;;;8.37;6.77;;;;;;;;;;5054514;28;20181;-63
2021/04/30 05:07:40;;;;;;;8.13;6.83;;;;;;;;;;5056363;28;20181;-64
2021/04/30 05:10:06;;;;;;;7.53;6.33;;;;;;;;;;5072003;28;20202;-64
2021/04/30 05:12:33;;;;;;;9.67;6.53;;;;;;;;;;5072941;28;20250;-64
2021/04/30 05:14:59;;;;;;;7.73;6.90;;;;;;;;;;5055425;28;20923;-62
2021/04/30 05:17:25;;;;;;;7.67;6.93;;;;;;;;;;5071784;28;20245;-63
2021/04/30 05:19:51;;;;;;;8.23;7.07;;;;;;;;;;5055272;28;20180;-62
2021/04/30 05:22:17;;;;;;;10.37;6.90;;;;;;;;;;5051174;28;20173;-63
2021/04/30 05:24:44;;;;;;;9.23;7.63;;;;;;;;;;5051167;28;20188;-62
2021/04/30 05:27:11;;;;;;;10.90;7.43;;;;;;;;;;5066935;28;20573;-65
2021/04/30 05:29:41;;;;;;;12.30;7.60;;;;;;;;;;5066841;28;20227;-63
2021/04/30 05:32:07;;;;;;;9.70;7.23;;;;;;;;;;5063619;28;20184;-63
2021/04/30 05:34:33;;;;;;;8.43;7.37;;;;;;;;;;5075081;28;20227;-62
2021/04/30 05:36:59;;;;;;;9.47;8.07;;;;;;;;;;5082277;28;20255;-63
2021/04/30 05:39:25;;;;;;;9.43;8.30;;;;;;;;;;5081082;28;20409;-64
2021/04/30 05:41:51;;;;;;;8.57;7.17;;;;;;;;;;5073678;28;20307;-62
2021/04/30 05:44:17;;;;;;;8.17;7.03;;;;;;;;;;5073533;28;20191;-62
2021/04/30 05:46:44;;;;;;;8.33;7.17;;;;;;;;;;5074235;28;20172;-63
2021/04/30 05:49:10;;;;;;;8.70;7.80;;;;;;;;;;5092724;28;20188;-63
2021/04/30 05:51:36;;;;;;;8.37;6.80;;;;;;;;;;5064348;28;20181;-64
2021/04/30 05:54:02;;;;;;;9.23;6.77;;;;;;;;;;5080633;28;20209;-63
2021/04/30 05:56:28;;;;;;;7.30;6.47;;;;;;;;;;5091624;28;20239;-62
2021/04/30 05:58:54;;;;;;;10.20;7.20;;;;;;;;;;5091847;28;20180;-63
2021/04/30 06:01:21;;;;;;;9.63;7.03;;;;;;;;;;5083034;28;20197;-64
2021/04/30 06:03:47;;;;;;;7.20;6.50;;;;;;;;;;5080434;28;20176;-64
2021/04/30 06:06:13;;;;;;;7.00;6.30;;;;;;;;;;5066740;28;20616;-63
2021/04/30 06:08:39;;;;;;;8.07;7.23;;;;;;;;;;5085315;28;20241;-63
2021/04/30 06:11:05;;;;;;;8.57;7.73;;;;;;;;;;5073257;28;20221;-63
2021/04/30 06:13:31;;;;;;;8.53;7.60;;;;;;;;;;5074220;28;20188;-65
2021/04/30 06:15:57;;;;;;;10.20;7.90;;;;;;;;;;5092505;28;20618;-64
2021/04/30 06:18:24;;;;;;;9.07;8.13;;;;;;;;;;5073926;28;20223;-64
2021/04/30 06:20:50;;;;;;;10.25;7.95;;;;;;;;;;5092477;28;20405;-64
2021/04/30 06:23:16;;;;;;;10.37;8.53;;;;;;;;;;5091007;28;20564;-64
2021/04/30 06:25:42;;;;;;;9.13;7.73;;;;;;;;;;5073452;28;20176;-67
2021/04/30 06:28:08;;;;;;;9.03;8.03;;;;;;;;;;5091951;28;20168;-63
2021/04/30 06:30:34;;;;;;;12.57;8.97;;;;;;;;;;5074053;28;20179;-64
2021/04/30 06:33:00;;;;;;;9.33;8.03;;;;;;;;;;5091967;28;20175;-64
2021/04/30 06:35:30;;;;;;;9.73;8.73;;;;;;;;;;5073073;28;20626;-63
2021/04/30 06:37:56;;;;;;;10.00;8.60;;;;;;;;;;5074002;28;20736;-64
2021/04/30 06:40:22;;;;;;;10.10;8.13;;;;;;;;;;5090443;28;20180;-64
2021/04/30 06:42:48;;;;;;;10.67;8.30;;;;;;;;;;5073622;28;20233;-63
2021/04/30 06:45:14;;;;;;;13.37;9.17;;;;;;;;;;5090960;28;20183;-64
2021/04/30 06:47:40;;;;;;;10.97;9.03;;;;;;;;;;5073550;28;20168;-64
2021/04/30 06:50:06;;;;;;;10.73;9.63;;;;;;;;;;5090146;28;20242;-65
2021/04/30 06:52:32;;;;;;;11.50;8.13;;;;;;;;;;5067046;28;20199;-63
2021/04/30 06:54:59;;;;;;;9.43;8.43;;;;;;;;;;5066772;28;20192;-62
2021/04/30 06:57:25;;;;;;;10.33;8.97;;;;;;;;;;5076462;28;20180;-65
2021/04/30 06:59:51;;;;;;;13.60;9.43;;;;;;;;;;5091762;28;20180;-63
2021/04/30 07:02:17;;;;;;;10.77;9.67;;;;;;;;;;5092289;28;20507;-63
2021/04/30 07:04:43;;;;;;;10.50;9.33;;;;;;;;;;5073647;28;20191;-63
2021/04/30 07:07:09;;;;;;;11.47;9.03;;;;;;;;;;5073781;28;20177;-64
2021/04/30 07:09:35;;;;;;;11.43;9.50;;;;;;;;;;5071453;28;20205;-63
2021/04/30 07:12:01;;;;;;;10.80;9.00;;;;;;;;;;5091025;28;20172;-63
2021/04/30 07:14:27;;;;;;;10.73;9.20;;;;;;;;;;5082954;28;20180;-64
2021/04/30 07:16:53;;;;;;;10.40;9.23;;;;;;;;;;5071355;28;20259;-63
2021/04/30 07:19:20;;;;;;;11.77;9.57;;;;;;;;;;5081108;28;20176;-63
2021/04/30 07:21:46;;;;;;;10.83;9.37;;;;;;;;;;5072649;28;20180;-63
2021/04/30 07:24:12;;;;;;;9.60;8.70;;;;;;;;;;5090619;28;20528;-63
2021/04/30 07:26:38;;;;;;;12.00;9.33;;;;;;;;;;5072390;28;20171;-63
2021/04/30 07:29:04;;;;;;;10.50;9.40;;;;;;;;;;5091152;28;20568;-63
2021/04/30 07:31:30;;;;;;;10.93;9.57;;;;;;;;;;5086225;28;20191;-62
2021/04/30 07:33:56;;;;;;;11.50;10.13;;;;;;;;;;5063795;28;20226;-64
2021/04/30 07:36:22;;;;;;;13.27;10.30;;;;;;;;;;5083513;28;20260;-64
2021/04/30 07:38:48;;;;;;;10.87;9.77;;;;;;;;;;5059656;28;20183;-63
2021/04/30 07:41:15;;;;;;;15.50;12.53;;;;;;;;;;5090157;28;20635;-63
2021/04/30 07:43:42;;;;;;;13.13;11.37;;;;;;;;;;5073405;28;20183;-63
2021/04/30 07:46:08;;;;;;;14.43;11.97;;;;;;;;;;5090248;28;20172;-63
2021/04/30 07:48:34;;;;;;;16.30;12.10;;;;;;;;;;5091331;28;20183;-63
2021/04/30 07:51:01;;;;;;;14.67;12.57;;;;;;;;;;5091511;28;20269;-64
2021/04/30 07:53:28;;;;;;;15.10;12.23;;;;;;;;;;5090580;28;20186;-64
2021/04/30 07:55:54;;;;;;;14.30;12.87;;;;;;;;;;5089338;28;20219;-63
2021/04/30 07:58:25;;;;;;;13.73;12.43;;;;;;;;;;5088541;28;20207;-63
2021/04/30 08:00:50;;;;;;;14.50;12.77;;;;;;;;;;5089269;28;20176;-62
2021/04/30 08:03:17;;;;;;;13.60;11.77;;;;;;;;;;5088731;28;20188;-62
2021/04/30 08:05:43;;;;;;;13.83;12.43;;;;;;;;;;5090261;28;20191;-63
2021/04/30 08:08:09;;;;;;;14.97;13.07;;;;;;;;;;5090138;28;20177;-63
2021/04/30 08:10:35;;;;;;;16.43;12.10;;;;;;;;;;5089462;28;20175;-62
2021/04/30 08:13:01;;;;;;;16.53;12.80;;;;;;;;;;5090299;28;20249;-62
2021/04/30 08:15:27;;;;;;;17.87;13.47;;;;;;;;;;5089241;28;20187;-62
2021/04/30 08:17:53;;;;;;;14.37;11.37;;;;;;;;;;5090463;28;20189;-62
2021/04/30 08:20:19;;;;;;;16.40;12.90;;;;;;;;;;5089253;28;20169;-62
2021/04/30 08:22:45;;;;;;;15.30;12.13;;;;;;;;;;5089597;28;20163;-62
2021/04/30 08:25:12;;;;;;;16.77;12.50;;;;;;;;;;5088484;28;20180;-62
2021/04/30 08:27:38;;;;;;;16.87;12.80;;;;;;;;;;5090260;28;20249;-62
2021/04/30 08:30:05;;;;;;;17.33;13.43;;;;;;;;;;5088079;28;20183;-63
2021/04/30 08:32:31;;;;;;;20.43;14.93;;;;;;;;;;5090201;28;20178;-63
2021/04/30 08:34:57;;;;;;;15.63;13.93;;;;;;;;;;5074972;28;20635;-62
2021/04/30 08:37:24;;;;;;;20.03;13.50;;;;;;;;;;5090128;28;20257;-63
2021/04/30 08:39:50;;;;;;;17.00;13.53;;;;;;;;;;5088725;28;20498;-62
2021/04/30 08:42:17;;;;;;;19.30;13.87;;;;;;;;;;5088740;28;20543;-63
2021/04/30 08:44:43;;;;;;;19.67;13.07;;;;;;;;;;5089102;28;20287;-65
2021/04/30 08:47:09;;;;;;;18.47;14.40;;;;;;;;;;5090634;28;20227;-62
2021/04/30 08:49:35;;;;;;;17.70;13.73;;;;;;;;;;5089804;28;20727;-62
2021/04/30 08:52:02;;;;;;;17.07;13.47;;;;;;;;;;5090888;28;20190;-63
2021/04/30 08:54:28;;;;;;;15.37;12.73;;;;;;;;;;5088445;28;20201;-63
2021/04/30 08:57:01;;;;;;;15.87;13.47;;;;;;;;;;5090935;28;20523;-64
2021/04/30 08:59:28;;;;;;;14.90;13.23;;;;;;;;;;5077020;28;20194;-62
2021/04/30 09:01:54;;;;;;;15.93;13.03;;;;;;;;;;5052419;28;20332;-63
2021/04/30 09:04:20;;;;;;;15.03;12.97;;;;;;;;;;5080588;28;20649;-64
2021/04/30 09:06:46;;;;;;;16.30;13.37;;;;;;;;;;5090494;28;20204;-63
2021/04/30 09:09:14;;;;;;;16.30;12.93;;;;;;;;;;5088858;28;20589;-62
2021/04/30 09:11:45;;;;;;;16.57;12.90;;;;;;;;;;5087972;28;20208;-63
2021/04/30 09:14:20;;;;;;;14.73;13.03;;;;;;;;;;5088495;28;20222;-62
2021/04/30 09:17:05;;;;;;;18.10;13.77;;;;;;;;;;5087966;28;20190;-63
2021/04/30 09:19:36;;;;;;;20.87;13.33;;;;;;;;;;5087595;28;20639;-63
2021/04/30 09:22:07;;;;;;;17.23;13.40;;;;;;;;;;5087517;28;20186;-63
2021/04/30 09:24:33;;;;;;;17.23;14.90;;;;;;;;;;5073897;28;20229;-63
2021/04/30 09:26:59;;;;;;;16.27;13.60;;;;;;;;;;5069369;28;20185;-63
2021/04/30 09:29:32;;;;;;;18.27;14.40;;;;;;;;;;5080125;28;20180;-62
2021/04/30 09:31:58;;;;;;;20.00;15.33;;;;;;;;;;5088439;28;20218;-63
2021/04/30 09:34:35;;;;;;;18.50;13.97;;;;;;;;;;5089968;28;20220;-62
2021/04/30 09:37:12;;;;;;;19.97;14.53;;;;;;;;;;5093532;28;20167;-62
2021/04/30 09:39:48;;;;;;;16.20;13.50;;;;;;;;;;5092215;28;20168;-64
2021/04/30 09:42:18;;;;;;;19.27;13.57;;;;;;;;;;5091759;28;20172;-62
2021/04/30 09:44:48;;;;;;;15.90;11.93;;;;;;;;;;5077104;28;20180;-63
2021/04/30 09:47:21;;;;;;;20.30;13.63;;;;;;;;;;5072750;28;20165;-62
2021/04/30 09:49:48;;;;;;;16.27;13.50;;;;;;;;;;5067844;28;20291;-63
2021/04/30 09:52:14;;;;;;;18.53;12.47;;;;;;;;;;5089040;28;20188;-63
2021/04/30 09:54:40;;;;;;;22.60;14.93;;;;;;;;;;5085235;28;20295;-61
2021/04/30 09:57:11;;;;;;;23.33;17.77;;;;;;;;;;5081725;28;20894;-63
2021/04/30 09:59:38;;;;;;;19.83;15.27;;;;;;;;;;5087131;28;20626;-64
2021/04/30 10:02:07;;;;;;;28.13;16.13;;;;;;;;;;5078377;28;20184;-63
2021/04/30 10:04:34;;;;;;;18.90;13.90;;;;;;;;;;5079585;28;20176;-61
2021/04/30 10:07:01;;;;;;;20.40;15.17;;;;;;;;;;5092956;28;20229;-62
2021/04/30 10:09:28;;;;;;;17.20;13.93;;;;;;;;;;5072832;28;20183;-62
2021/04/30 10:11:55;;;;;;;25.83;18.20;;;;;;;;;;5087356;28;20920;-63
2021/04/30 10:14:23;;;;;;;19.27;14.60;;;;;;;;;;5091585;28;20175;-63
2021/04/30 10:16:49;;;;;;;18.33;14.43;;;;;;;;;;5092072;28;20271;-65
2021/04/30 10:19:15;;;;;;;21.33;16.23;;;;;;;;;;5087827;28;20269;-63
2021/04/30 10:21:41;;;;;;;17.27;13.57;;;;;;;;;;5072150;28;20187;-62
2021/04/30 10:24:09;;;;;;;18.70;15.00;;;;;;;;;;5085060;28;20175;-63
2021/04/30 10:26:35;;;;;;;17.90;14.77;;;;;;;;;;5086746;28;20547;-64
2021/04/30 10:29:04;;;;;;;17.60;14.33;;;;;;;;;;5079890;28;20176;-62
2021/04/30 10:31:32;;;;;;;16.07;13.67;;;;;;;;;;5082773;28;20617;-63
2021/04/30 10:34:17;;;;;;;17.60;14.37;;;;;;;;;;5060999;28;20212;-63
2021/04/30 10:36:47;;;;;;;16.43;12.80;;;;;;;;;;5091157;28;20229;-62
2021/04/30 10:39:22;;;;;;;16.50;13.90;;;;;;;;;;5072239;28;20161;-63
2021/04/30 10:41:49;;;;;;;16.53;13.93;;;;;;;;;;5053950;28;20164;-62
2021/04/30 10:44:16;;;;;;;16.87;12.67;;;;;;;;;;5090883;28;20254;-63
2021/04/30 10:46:43;;;;;;;16.03;14.00;;;;;;;;;;5080524;28;20195;-62
2021/04/30 10:49:16;;;;;;;16.93;13.60;;;;;;;;;;5070060;28;20662;-63
2021/04/30 10:51:42;;;;;;;17.73;13.77;;;;;;;;;;5090189;28;20172;-63
2021/04/30 10:54:24;;;;;;;20.23;14.57;;;;;;;;;;5073653;28;20186;-63
2021/04/30 10:56:57;;;;;;;16.53;13.03;;;;;;;;;;5080274;28;20183;-63
2021/04/30 10:59:27;;;;;;;16.53;13.17;;;;;;;;;;5089847;28;20172;-63
2021/04/30 11:02:01;;;;;;;18.47;14.00;;;;;;;;;;5089953;28;20910;-63
2021/04/30 11:04:28;;;;;;;19.40;14.50;;;;;;;;;;5086457;28;20201;-64
2021/04/30 11:06:54;;;;;;;16.13;14.00;;;;;;;;;;5053635;28;20374;-62
2021/04/30 11:09:28;;;;;;;15.43;13.50;;;;;;;;;;5081271;28;20175;-65
2021/04/30 11:11:54;;;;;;;16.07;13.43;;;;;;;;;;5089454;28;20210;-64
2021/04/30 11:14:23;;;;;;;14.80;13.00;;;;;;;;;;5090819;28;20216;-63
2021/04/30 11:16:50;;;;;;;18.83;14.33;;;;;;;;;;5091416;28;20642;-65
2021/04/30 11:19:16;;;;;;;16.67;14.87;;;;;;;;;;5079890;28;20195;-63
2021/04/30 11:21:46;;;;;;;19.47;16.30;;;;;;;;;;5075730;28;20187;-62
2021/04/30 11:24:27;;;;;;;19.17;15.97;;;;;;;;;;5067240;28;20180;-63
2021/04/30 11:27:12;;;;;;;20.30;17.33;;;;;;;;;;5091218;28;20172;-62
2021/04/30 11:29:41;;;;;;;20.67;16.67;;;;;;;;;;5082180;28;20261;-62
2021/04/30 11:32:20;;;;;;;18.13;15.90;;;;;;;;;;5091184;28;20195;-64
2021/04/30 11:34:53;;;;;;;20.20;16.80;;;;;;;;;;5090285;28;20666;-64
2021/04/30 11:37:20;;;;;;;19.67;16.63;;;;;;;;;;5089747;28;20217;-62
2021/04/30 11:39:47;;;;;;;22.53;18.23;;;;;;;;;;5083332;28;20177;-62
2021/04/30 11:42:14;;;;;;;21.73;18.27;;;;;;;;;;5085858;28;20182;-63
2021/04/30 11:44:43;;;;;;;19.87;17.70;;;;;;;;;;5091170;28;20207;-63
2021/04/30 11:47:12;;;;;;;23.63;17.37;;;;;;;;;;5091159;28;20164;-63
2021/04/30 11:49:39;;;;;;;22.20;19.23;;;;;;;;;;5063478;28;20192;-63
2021/04/30 11:52:06;;;;;;;19.03;16.93;;;;;;;;;;5078311;28;20176;-63
2021/04/30 11:54:36;;;;;;;21.80;19.13;;;;;;;;;;5079418;28;20318;-62
2021/04/30 11:57:07;;;;;;;22.30;19.77;;;;;;;;;;5068779;28;20172;-62
2021/04/30 11:59:34;;;;;;;22.00;19.60;;;;;;;;;;5082232;28;20220;-64
2021/04/30 12:02:01;;;;;;;20.80;18.63;;;;;;;;;;5089740;28;20181;-64
2021/04/30 12:04:41;;;;;;;20.67;17.60;;;;;;;;;;5089294;28;20534;-64
2021/04/30 12:07:08;;;;;;;22.60;19.57;;;;;;;;;;5079624;28;20176;-62
2021/04/30 12:09:34;;;;;;;21.67;19.37;;;;;;;;;;5079208;28;20632;-62
2021/04/30 12:12:10;;;;;;;21.93;19.13;;;;;;;;;;5069627;28;20185;-63
2021/04/30 12:14:45;;;;;;;22.37;18.77;;;;;;;;;;5081540;28;20168;-63
2021/04/30 12:17:23;;;;;;;19.57;17.57;;;;;;;;;;5089803;28;20600;-62
2021/04/30 12:19:53;;;;;;;20.90;18.37;;;;;;;;;;5070668;28;20175;-63
2021/04/30 12:22:19;;;;;;;20.37;18.27;;;;;;;;;;5075477;28;20230;-63
2021/04/30 12:24:45;;;;;;;21.10;17.67;;;;;;;;;;5063945;28;20179;-64
2021/04/30 12:27:23;;;;;;;20.70;18.50;;;;;;;;;;5078406;28;20515;-63
2021/04/30 12:29:50;;;;;;;21.33;17.23;;;;;;;;;;5082644;28;20317;-63
2021/04/30 12:32:26;;;;;;;19.87;17.43;;;;;;;;;;5081792;28;20176;-64
2021/04/30 12:34:53;;;;;;;18.03;16.07;;;;;;;;;;5060751;28;20219;-63
2021/04/30 12:37:19;;;;;;;18.10;16.17;;;;;;;;;;5054119;28;20179;-63
2021/04/30 12:39:46;;;;;;;23.95;21.35;;;;;;;;;;5077237;28;21044;-66
2021/04/30 12:42:12;;;;;;;18.83;16.50;;;;;;;;;;5060220;28;20224;-63
2021/04/30 12:44:38;;;;;;;21.10;16.97;;;;;;;;;;5083171;28;20180;-65
2021/04/30 12:47:05;;;;;;;18.77;16.77;;;;;;;;;;5076279;28;20511;-63
2021/04/30 12:49:38;;;;;;;20.13;17.50;;;;;;;;;;5057854;28;20279;-64
2021/04/30 12:52:05;;;;;;;19.47;17.43;;;;;;;;;;5081024;28;20598;-63
2021/04/30 12:54:34;;;;;;;19.33;16.13;;;;;;;;;;5082833;28;20180;-64
2021/04/30 12:57:06;;;;;;;18.43;15.60;;;;;;;;;;5087157;28;20176;-65
2021/04/30 12:59:32;;;;;;;21.67;16.73;;;;;;;;;;5081699;28;20168;-64
2021/04/30 13:02:07;;;;;;;18.17;15.73;;;;;;;;;;5064022;28;20186;-64
2021/04/30 13:04:41;;;;;;;17.77;15.83;;;;;;;;;;5089065;28;20188;-64
2021/04/30 13:07:07;;;;;;;20.07;15.70;;;;;;;;;;5081995;28;20199;-63
2021/04/30 13:09:34;;;;;;;20.87;16.37;;;;;;;;;;5082940;28;20172;-64
2021/04/30 13:12:05;;;;;;;20.03;16.33;;;;;;;;;;5077100;28;20180;-63
2021/04/30 13:14:40;;;;;;;18.37;15.90;;;;;;;;;;5085553;28;20205;-66
2021/04/30 13:17:15;;;;;;;17.63;15.30;;;;;;;;;;5077567;28;20179;-64
2021/04/30 13:19:41;;;;;;;16.10;14.50;;;;;;;;;;5063412;28;20163;-64
2021/04/30 13:22:12;;;;;;;17.70;15.83;;;;;;;;;;5090619;28;20179;-63
2021/04/30 13:24:39;;;;;;;18.60;15.90;;;;;;;;;;5064783;28;20175;-63
2021/04/30 13:27:13;;;;;;;16.93;15.23;;;;;;;;;;5060754;28;20658;-63
2021/04/30 13:29:43;;;;;;;19.13;17.23;;;;;;;;;;5084270;28;20861;-63
2021/04/30 13:32:11;;;;;;;19.40;15.50;;;;;;;;;;5086658;28;21430;-64
2021/04/30 13:34:41;;;;;;;17.60;15.70;;;;;;;;;;5083757;28;20219;-64
2021/04/30 13:37:09;;;;;;;18.10;15.53;;;;;;;;;;5087187;28;20270;-64
2021/04/30 13:39:37;;;;;;;16.40;14.33;;;;;;;;;;5076449;28;20173;-64
2021/04/30 13:42:03;;;;;;;17.20;14.63;;;;;;;;;;5089697;28;20240;-63
2021/04/30 13:44:29;;;;;;;17.03;15.23;;;;;;;;;;5070860;28;20184;-64
2021/04/30 13:46:57;;;;;;;16.03;14.43;;;;;;;;;;5079672;28;20185;-63
2021/04/30 13:49:41;;;;;;;15.77;14.10;;;;;;;;;;5090843;28;20203;-63
2021/04/30 13:52:07;;;;;;;15.93;14.33;;;;;;;;;;5084570;28;20182;-65
2021/04/30 13:54:33;;;;;;;14.10;12.63;;;;;;;;;;5082205;28;20176;-63
2021/04/30 13:56:59;;;;;;;16.07;14.37;;;;;;;;;;5077034;28;20673;-63
2021/04/30 13:59:41;;;;;;;15.70;14.10;;;;;;;;;;5084568;28;20176;-63
2021/04/30 14:02:08;;;;;;;16.73;13.83;;;;;;;;;;5082353;28;20168;-63
2021/04/30 14:04:34;;;;;;;17.03;15.23;;;;;;;;;;5076012;28;20723;-63
2021/04/30 14:07:00;;;;;;;16.47;14.77;;;;;;;;;;5086702;28;20280;-63
2021/04/30 14:09:26;;;;;;;16.03;14.37;;;;;;;;;;5085766;28;21425;-64
2021/04/30 14:11:56;;;;;;;17.30;15.53;;;;;;;;;;5062497;28;20215;-63
2021/04/30 14:14:22;;;;;;;16.87;14.87;;;;;;;;;;5083724;28;20217;-63
2021/04/30 14:16:48;;;;;;;17.93;15.23;;;;;;;;;;5080333;28;20657;-64
2021/04/30 14:19:14;;;;;;;18.33;16.33;;;;;;;;;;5078238;28;20180;-63
2021/04/30 14:21:41;;;;;;;17.30;15.37;;;;;;;;;;5076037;28;20203;-63
2021/04/30 14:24:08;;;;;;;16.77;14.43;;;;;;;;;;5062305;28;20520;-63
2021/04/30 14:26:34;;;;;;;15.23;13.37;;;;;;;;;;5086318;28;20604;-64
2021/04/30 14:29:00;;;;;;;16.50;14.80;;;;;;;;;;5068997;28;20176;-63